createdAt,value
2018-08-30T00:00:19.485Z,16.34
2018-08-30T00:02:49.934Z,16.32
2018-08-30T00:05:18.494Z,16.32
2018-08-30T00:07:47.024Z,16.37
2018-08-30T00:10:15.740Z,16.38
2018-08-30T00:12:44.416Z,16.43
2018-08-30T00:15:12.955Z,16.56
2018-08-30T00:17:42.491Z,16.60
2018-08-30T00:20:12.006Z,16.63
2018-08-30T00:22:40.532Z,16.62
2018-08-30T00:25:09.969Z,16.63
2018-08-30T00:27:38.519Z,16.58
2018-08-30T00:30:07.042Z,16.67
2018-08-30T00:32:36.580Z,16.77
2018-08-30T00:35:05.112Z,16.81
2018-08-30T00:37:33.667Z,16.91
2018-08-30T00:40:02.210Z,16.87
2018-08-30T00:42:30.740Z,16.78
2018-08-30T00:44:59.310Z,16.78
2018-08-30T00:47:27.840Z,16.78
2018-08-30T00:49:56.408Z,16.84
2018-08-30T00:52:26.928Z,16.85
2018-08-30T00:54:55.464Z,16.87
2018-08-30T00:57:24.025Z,16.89
2018-08-30T00:59:52.547Z,16.90
2018-08-30T01:02:21.148Z,16.94
2018-08-30T01:04:49.659Z,16.94
2018-08-30T01:07:18.208Z,17.02
2018-08-30T01:09:46.748Z,17.04
2018-08-30T01:12:15.272Z,17.07
2018-08-30T01:14:43.816Z,17.12
2018-08-30T01:17:12.361Z,17.08
2018-08-30T01:19:40.956Z,17.06
2018-08-30T01:22:09.461Z,17.01
2018-08-30T01:24:37.997Z,17.04
2018-08-30T01:27:06.569Z,17.06
2018-08-30T01:29:35.103Z,17.06
2018-08-30T01:32:03.648Z,17.10
2018-08-30T01:34:32.199Z,17.16
2018-08-30T01:37:00.723Z,17.08
2018-08-30T01:39:29.264Z,17.04
2018-08-30T01:41:58.781Z,17.05
2018-08-30T01:44:27.331Z,17.09
2018-08-30T01:46:55.965Z,17.08
2018-08-30T01:49:24.495Z,17.04
2018-08-30T01:51:53.044Z,17.01
2018-08-30T01:54:21.694Z,17.04
2018-08-30T01:56:50.244Z,17.05
2018-08-30T01:59:18.773Z,17.08
2018-08-30T02:01:47.313Z,17.16
2018-08-30T02:04:15.862Z,17.12
2018-08-30T02:06:44.393Z,17.09
2018-08-30T02:09:13.862Z,16.98
2018-08-30T02:14:08.747Z,16.98
2018-08-30T02:16:37.811Z,17.04
2018-08-30T02:19:08.867Z,17.04
2018-08-30T02:21:37.925Z,17.13
2018-08-30T02:24:07.956Z,17.21
2018-08-30T02:26:37.021Z,17.19
2018-08-30T02:29:08.002Z,17.23
2018-08-30T02:31:37.061Z,17.30
2018-08-30T02:34:06.116Z,17.28
2018-08-30T02:36:36.107Z,17.36
2018-08-30T02:39:05.213Z,17.30
2018-08-30T02:41:34.269Z,17.29
2018-08-30T02:44:03.341Z,17.38
2018-08-30T02:46:32.377Z,17.40
2018-08-30T02:49:01.518Z,17.39
2018-08-30T02:51:30.498Z,17.40
2018-08-30T02:56:35.292Z,17.35
2018-08-30T02:59:04.363Z,17.38
2018-08-30T03:01:33.409Z,17.33
2018-08-30T03:04:02.466Z,17.36
2018-08-30T03:06:33.495Z,17.33
2018-08-30T03:09:02.559Z,17.35
2018-08-30T03:11:31.618Z,17.29
2018-08-30T03:14:00.785Z,17.24
2018-08-30T03:19:05.581Z,17.25
2018-08-30T03:21:35.575Z,17.26
2018-08-30T03:24:04.615Z,17.22
2018-08-30T03:26:33.673Z,17.17
2018-08-30T03:29:03.683Z,17.04
2018-08-30T03:31:32.749Z,16.98
2018-08-30T03:34:05.274Z,16.95
2018-08-30T03:36:34.346Z,16.94
2018-08-30T03:39:03.713Z,16.93
2018-08-30T03:41:32.764Z,16.94
2018-08-30T03:44:01.825Z,16.97
2018-08-30T03:46:30.882Z,17.05
2018-08-30T03:49:00.888Z,17.03
2018-08-30T03:51:29.949Z,17.03
2018-08-30T03:53:59.032Z,17.02
2018-08-30T03:56:29.113Z,16.97
2018-08-30T03:58:58.158Z,16.91
2018-08-30T04:01:27.257Z,16.91
2018-08-30T04:03:57.689Z,16.88
2018-08-30T04:06:26.745Z,16.87
2018-08-30T04:08:56.749Z,16.85
2018-08-30T04:11:26.777Z,16.82
2018-08-30T04:13:55.840Z,16.80
2018-08-30T04:16:24.953Z,16.77
2018-08-30T04:18:54.011Z,16.83
2018-08-30T04:21:23.066Z,16.85
2018-08-30T04:23:53.099Z,16.77
2018-08-30T04:26:22.164Z,16.83
2018-08-30T04:28:51.227Z,16.86
2018-08-30T04:33:56.068Z,16.60
2018-08-30T04:39:01.918Z,16.68
2018-08-30T04:41:32.507Z,16.49
2018-08-30T04:44:01.575Z,16.46
2018-08-30T04:49:06.539Z,16.53
2018-08-30T04:54:12.450Z,16.48
2018-08-30T04:56:41.557Z,16.49
2018-08-30T05:01:46.376Z,16.49
2018-08-30T05:06:51.263Z,16.53
2018-08-30T05:09:22.321Z,16.48
2018-08-30T05:11:51.488Z,16.35
2018-08-30T05:14:20.549Z,16.32
2018-08-30T05:16:49.673Z,16.32
2018-08-30T05:19:18.727Z,16.48
2018-08-30T05:24:26.525Z,16.59
2018-08-30T05:29:31.422Z,16.35
2018-08-30T05:32:00.598Z,16.33
2018-08-30T05:34:29.642Z,16.27
2018-08-30T05:36:58.701Z,16.26
2018-08-30T05:39:31.061Z,16.20
2018-08-30T05:44:36.473Z,16.11
2018-08-30T05:49:40.711Z,16.12
2018-08-30T05:52:11.710Z,16.08
2018-08-30T06:02:48.445Z,16.10
2018-08-30T06:05:26.634Z,16.11
2018-08-30T06:13:18.821Z,16.15
2018-08-30T06:15:55.669Z,16.15
2018-08-30T06:23:37.234Z,16.09
2018-08-30T06:28:42.082Z,15.98
2018-08-30T06:31:14.337Z,15.95
2018-08-30T06:33:45.411Z,15.96
2018-08-30T06:36:14.491Z,15.96
2018-08-30T06:38:44.563Z,15.95
2018-08-30T06:43:50.130Z,15.95
2018-08-30T06:46:19.364Z,16.01
2018-08-30T06:48:52.160Z,16.02
2018-08-30T06:56:32.754Z,16.06
2018-08-30T06:59:01.903Z,15.95
2018-08-30T07:01:31.135Z,15.90
2018-08-30T07:04:00.182Z,15.95
2018-08-30T07:06:36.644Z,15.94
2018-08-30T07:09:11.442Z,15.86
2018-08-30T07:16:52.995Z,15.90
2018-08-30T07:19:25.374Z,15.94
2018-08-30T07:21:55.398Z,15.91
2018-08-30T07:24:33.226Z,15.87
2018-08-30T07:27:02.295Z,15.97
2018-08-30T07:29:32.245Z,16.04
2018-08-30T07:34:45.225Z,16.17
2018-08-30T07:37:14.201Z,16.24
2018-08-30T07:39:43.254Z,16.30
2018-08-30T07:44:48.101Z,16.49
2018-08-30T07:47:17.226Z,16.54
2018-08-30T07:49:46.232Z,16.58
2018-08-30T07:52:15.289Z,16.52
2018-08-30T07:54:44.529Z,16.57
2018-08-30T07:57:13.649Z,16.73
2018-08-30T07:59:44.609Z,17.05
2018-08-30T08:04:49.391Z,17.48
2018-08-30T08:07:20.505Z,17.38
2018-08-30T08:09:53.382Z,17.43
2018-08-30T08:12:22.441Z,17.50
2018-08-30T08:14:51.512Z,17.54
2018-08-30T08:17:22.538Z,17.39
2018-08-30T08:19:52.509Z,17.27
2018-08-30T08:22:21.595Z,17.27
2018-08-30T08:24:50.714Z,17.41
2018-08-30T08:27:20.682Z,17.61
2018-08-30T08:29:49.754Z,17.67
2018-08-30T08:32:20.297Z,17.49
2018-08-30T08:37:25.542Z,17.36
2018-08-30T08:39:54.609Z,17.38
2018-08-30T08:42:24.581Z,17.44
2018-08-30T08:44:53.901Z,17.69
2018-08-30T08:47:24.931Z,17.61
2018-08-30T08:49:55.991Z,17.55
2018-08-30T08:52:29.074Z,17.67
2018-08-30T08:54:58.138Z,17.89
2018-08-30T08:57:27.381Z,17.68
2018-08-30T08:59:57.389Z,17.88
2018-08-30T09:02:27.407Z,18.24
2018-08-30T09:07:33.245Z,18.57
2018-08-30T09:10:02.239Z,18.65
2018-08-30T09:12:31.282Z,18.80
2018-08-30T09:15:01.294Z,18.76
2018-08-30T09:17:30.356Z,18.51
2018-08-30T09:19:59.399Z,18.81
2018-08-30T09:22:28.449Z,19.20
2018-08-30T09:24:57.497Z,19.35
2018-08-30T09:27:26.571Z,19.07
2018-08-30T09:29:55.637Z,19.16
2018-08-30T09:32:24.689Z,18.83
2018-08-30T09:34:53.732Z,18.40
2018-08-30T09:37:22.793Z,18.41
2018-08-30T09:39:55.265Z,18.74
2018-08-30T09:42:24.315Z,18.89
2018-08-30T09:44:53.503Z,18.91
2018-08-30T09:47:22.538Z,19.08
2018-08-30T09:49:51.675Z,19.38
2018-08-30T09:54:58.419Z,19.92
2018-08-30T09:57:27.774Z,20.23
2018-08-30T09:59:56.766Z,20.23
2018-08-30T10:02:25.809Z,19.93
2018-08-30T10:04:56.860Z,20.25
2018-08-30T10:07:25.869Z,19.94
2018-08-30T10:09:54.904Z,20.22
2018-08-30T10:12:24.068Z,20.08
2018-08-30T10:14:53.125Z,19.87
2018-08-30T10:17:23.122Z,20.41
2018-08-30T10:19:54.218Z,20.62
2018-08-30T10:22:23.254Z,20.67
2018-08-30T10:24:52.340Z,19.66
2018-08-30T10:27:21.373Z,19.50
2018-08-30T10:29:52.422Z,19.89
2018-08-30T10:32:24.863Z,20.23
2018-08-30T10:34:53.904Z,20.64
2018-08-30T10:40:03.233Z,20.84
2018-08-30T10:42:32.450Z,20.57
2018-08-30T10:45:01.508Z,20.63
2018-08-30T10:47:31.558Z,20.32
2018-08-30T10:50:00.784Z,20.05
2018-08-30T10:52:29.798Z,20.02
2018-08-30T10:54:59.787Z,20.90
2018-08-30T10:57:28.853Z,21.01
2018-08-30T10:59:57.883Z,20.57
2018-08-30T11:02:26.937Z,20.07
2018-08-30T11:04:56.176Z,20.31
2018-08-30T11:07:25.220Z,21.08
2018-08-30T11:09:54.293Z,21.15
2018-08-30T11:12:23.445Z,21.12
2018-08-30T11:14:52.496Z,20.72
2018-08-30T11:17:21.555Z,20.88
2018-08-30T11:19:50.594Z,20.19
2018-08-30T11:30:06.958Z,20.83
2018-08-30T11:32:43.499Z,20.67
2018-08-30T11:35:17.204Z,21.19
2018-08-30T11:37:47.646Z,21.55
2018-08-30T11:40:17.541Z,21.28
2018-08-30T11:42:46.608Z,21.68
2018-08-30T11:45:15.666Z,22.00
2018-08-30T11:47:44.713Z,22.35
2018-08-30T11:50:13.757Z,21.97
2018-08-30T11:52:42.849Z,21.79
2018-08-30T11:55:11.853Z,20.63
2018-08-30T11:57:40.922Z,20.78
2018-08-30T12:00:09.988Z,20.34
2018-08-30T12:02:39.042Z,20.26
2018-08-30T12:05:08.105Z,20.21
2018-08-30T12:07:37.145Z,20.15
2018-08-30T12:10:08.198Z,20.45
2018-08-30T12:12:37.545Z,20.45
2018-08-30T12:15:06.589Z,20.61
2018-08-30T12:17:35.654Z,20.95
2018-08-30T12:20:05.397Z,20.94
2018-08-30T12:22:34.446Z,21.10
2018-08-30T12:25:03.488Z,21.03
2018-08-30T12:27:32.754Z,20.48
2018-08-30T12:30:01.841Z,20.66
2018-08-30T12:32:30.952Z,19.77
2018-08-30T12:35:00.952Z,19.78
2018-08-30T12:37:35.762Z,19.73
2018-08-30T12:40:04.910Z,19.61
2018-08-30T12:42:34.958Z,19.40
2018-08-30T12:45:03.990Z,19.37
2018-08-30T12:47:33.011Z,19.17
2018-08-30T12:50:02.070Z,19.13
2018-08-30T12:52:31.159Z,19.14
2018-08-30T12:55:00.201Z,19.20
2018-08-30T12:57:29.326Z,18.93
2018-08-30T13:02:35.060Z,19.02
2018-08-30T13:05:04.186Z,18.60
2018-08-30T13:07:33.245Z,18.46
2018-08-30T13:10:02.330Z,18.65
2018-08-30T13:12:32.104Z,18.71
2018-08-30T13:15:01.258Z,18.71
2018-08-30T13:17:30.914Z,18.73
2018-08-30T13:22:36.092Z,18.84
2018-08-30T13:25:04.935Z,18.86
2018-08-30T13:27:33.879Z,18.54
2018-08-30T13:30:03.309Z,18.47
2018-08-30T13:32:32.271Z,18.72
2018-08-30T13:35:01.523Z,18.63
2018-08-30T13:37:30.486Z,18.79
2018-08-30T13:39:59.410Z,19.11
2018-08-30T13:42:28.384Z,19.42
2018-08-30T13:44:57.572Z,19.86
2018-08-30T13:47:28.300Z,20.31
2018-08-30T13:49:57.560Z,20.76
2018-08-30T13:52:26.771Z,20.99
2018-08-30T13:54:59.088Z,20.78
2018-08-30T13:57:28.851Z,20.93
2018-08-30T13:59:57.968Z,21.59
2018-08-30T14:05:02.300Z,20.89
2018-08-30T14:07:34.721Z,20.68
2018-08-30T14:10:04.740Z,21.02
2018-08-30T14:12:33.991Z,20.90
2018-08-30T14:15:03.121Z,20.78
2018-08-30T14:20:08.559Z,20.63
2018-08-30T14:22:38.664Z,20.21
2018-08-30T14:25:08.585Z,19.90
2018-08-30T14:27:37.668Z,19.96
2018-08-30T14:30:07.752Z,19.93
2018-08-30T14:35:12.754Z,19.65
2018-08-30T14:40:18.079Z,19.50
2018-08-30T14:42:46.879Z,19.49
2018-08-30T14:45:17.045Z,19.46
2018-08-30T14:47:46.347Z,19.32
2018-08-30T14:52:51.081Z,19.52
2018-08-30T15:00:31.682Z,19.51
2018-08-30T15:03:00.721Z,19.66
2018-08-30T15:05:29.936Z,19.83
2018-08-30T15:07:58.812Z,19.83
2018-08-30T15:10:27.836Z,19.73
2018-08-30T15:12:56.891Z,19.87
2018-08-30T15:15:26.988Z,19.78
2018-08-30T15:17:55.977Z,19.89
2018-08-30T15:20:25.117Z,20.12
2018-08-30T15:22:54.081Z,19.86
2018-08-30T15:25:23.129Z,19.82
2018-08-30T15:27:54.094Z,19.88
2018-08-30T15:30:24.223Z,19.59
2018-08-30T15:32:55.725Z,19.49
2018-08-30T15:38:00.512Z,19.64
2018-08-30T15:40:30.494Z,19.53
2018-08-30T15:43:00.583Z,19.37
2018-08-30T15:45:29.628Z,19.23
2018-08-30T15:47:58.682Z,19.42
2018-08-30T15:50:27.746Z,19.46
2018-08-30T15:52:56.794Z,19.54
2018-08-30T15:58:01.694Z,19.59
2018-08-30T16:00:30.729Z,19.51
2018-08-30T16:03:00.790Z,19.61
2018-08-30T16:05:30.004Z,19.55
2018-08-30T16:07:59.090Z,19.37
2018-08-30T16:10:28.133Z,19.29
2018-08-30T16:12:57.322Z,19.25
2018-08-30T16:15:29.969Z,19.27
2018-08-30T16:18:02.680Z,19.29
2018-08-30T16:23:07.590Z,19.47
2018-08-30T16:25:40.698Z,19.37
2018-08-30T16:28:09.752Z,19.39
2018-08-30T16:30:39.057Z,19.35
2018-08-30T16:33:12.191Z,19.48
2018-08-30T16:35:42.434Z,19.34
2018-08-30T16:40:48.461Z,19.21
2018-08-30T16:43:17.510Z,19.48
2018-08-30T16:48:23.166Z,19.76
2018-08-30T16:50:52.229Z,19.73
2018-08-30T16:53:21.395Z,19.60
2018-08-30T16:55:50.326Z,19.57
2018-08-30T16:58:20.580Z,19.48
2018-08-30T17:00:49.618Z,19.07
2018-08-30T17:03:19.594Z,19.03
2018-08-30T17:05:48.725Z,19.01
2018-08-30T17:10:53.579Z,19.11
2018-08-30T17:13:22.625Z,19.25
2018-08-30T17:15:51.707Z,19.12
2018-08-30T17:20:56.584Z,18.97
2018-08-30T17:23:25.632Z,18.99
2018-08-30T17:25:54.816Z,18.69
2018-08-30T17:28:23.891Z,18.53
2018-08-30T17:33:29.481Z,18.45
2018-08-30T17:35:58.575Z,18.36
2018-08-30T17:38:27.709Z,18.20
2018-08-30T17:43:32.724Z,18.12
2018-08-30T17:46:01.775Z,17.94
2018-08-30T17:48:30.857Z,17.86
2018-08-30T17:50:59.947Z,17.76
2018-08-30T17:53:29.090Z,17.65
2018-08-30T17:55:58.088Z,17.55
2018-08-30T17:58:27.133Z,17.62
2018-08-30T18:00:57.204Z,17.58
2018-08-30T18:03:26.261Z,17.48
2018-08-30T18:05:55.341Z,17.38
2018-08-30T18:08:24.452Z,17.25
2018-08-30T18:10:53.514Z,17.28
2018-08-30T18:13:22.597Z,17.28
2018-08-30T18:15:51.666Z,17.19
2018-08-30T18:20:56.538Z,17.22
2018-08-30T18:23:25.604Z,17.29
2018-08-30T18:25:54.673Z,17.24
2018-08-30T18:28:23.922Z,17.20
2018-08-30T18:33:28.798Z,17.26
2018-08-30T18:35:57.854Z,17.13
2018-08-30T18:38:26.923Z,17.00
2018-08-30T18:40:55.989Z,17.03
2018-08-30T18:43:25.051Z,17.06
2018-08-30T18:45:54.109Z,17.06
2018-08-30T18:48:23.190Z,17.05
2018-08-30T18:50:52.255Z,16.92
2018-08-30T18:53:22.304Z,16.90
2018-08-30T18:55:51.378Z,16.83
2018-08-30T18:58:20.469Z,16.88
2018-08-30T19:00:49.482Z,16.94
2018-08-30T19:03:18.563Z,16.87
2018-08-30T19:05:48.602Z,16.81
2018-08-30T19:10:53.465Z,16.99
2018-08-30T19:13:22.605Z,17.00
2018-08-30T19:15:52.565Z,17.05
2018-08-30T19:23:55.104Z,16.92
2018-08-30T19:26:24.154Z,16.72
2018-08-30T19:28:53.240Z,16.63
2018-08-30T19:36:39.902Z,16.50
2018-08-30T19:39:08.945Z,16.31
2018-08-30T19:41:38.030Z,16.30
2018-08-30T19:44:08.036Z,16.37
2018-08-30T19:46:37.100Z,16.37
2018-08-30T19:49:06.226Z,16.37
2018-08-30T19:54:10.990Z,16.29
2018-08-30T19:56:41.003Z,16.32
2018-08-30T20:01:45.758Z,16.53
2018-08-30T20:04:14.838Z,16.65
2018-08-30T20:06:47.431Z,16.59
2018-08-30T20:09:17.462Z,16.48
2018-08-30T20:11:46.508Z,16.42
2018-08-30T20:14:15.553Z,16.47
2018-08-30T20:16:44.637Z,16.23
2018-08-30T20:19:14.658Z,16.17
2018-08-30T20:21:43.712Z,16.17
2018-08-30T20:24:12.830Z,16.13
2018-08-30T20:26:41.901Z,16.20
2018-08-30T20:29:10.962Z,16.10
2018-08-30T20:31:40.032Z,16.17
2018-08-30T20:36:44.832Z,16.13
2018-08-30T20:39:13.908Z,16.13
2018-08-30T20:41:44.105Z,16.22
2018-08-30T20:49:24.743Z,16.44
2018-08-30T20:51:53.798Z,16.53
2018-08-30T20:54:22.876Z,16.38
2018-08-30T20:56:51.929Z,16.35
2018-08-30T20:59:20.994Z,16.55
2018-08-30T21:01:51.067Z,16.49
2018-08-30T21:04:23.483Z,16.42
2018-08-30T21:12:04.247Z,16.47
2018-08-30T21:14:33.328Z,16.53
2018-08-30T21:17:02.384Z,16.55
2018-08-30T21:19:31.528Z,16.41
2018-08-30T21:22:01.482Z,16.47
2018-08-30T21:24:30.550Z,16.38
2018-08-30T21:26:59.620Z,16.29
2018-08-30T21:29:28.673Z,16.29
2018-08-30T21:31:57.825Z,16.32
2018-08-30T21:39:38.547Z,16.39
2018-08-30T21:42:07.606Z,16.35
2018-08-30T21:44:36.680Z,16.30
2018-08-30T21:47:06.436Z,16.26
2018-08-30T21:49:39.245Z,16.16
2018-08-30T21:52:08.344Z,16.03
2018-08-30T21:54:39.381Z,16.00
2018-08-30T21:57:08.453Z,15.83
2018-08-30T21:59:37.524Z,15.76
2018-08-30T22:02:06.626Z,15.78
2018-08-30T22:04:35.796Z,15.71
2018-08-30T22:07:04.914Z,15.56
2018-08-30T22:12:09.784Z,15.63
2018-08-30T22:14:38.856Z,15.59
2018-08-30T22:17:07.928Z,15.52
2018-08-30T22:22:13.901Z,15.76
2018-08-30T22:27:20.613Z,15.86
2018-08-30T22:29:49.722Z,15.88
2018-08-30T22:32:18.801Z,15.80
2018-08-30T22:37:23.589Z,15.68
2018-08-30T22:39:52.705Z,15.60
2018-08-30T22:42:23.703Z,15.47
2018-08-30T22:44:53.734Z,15.58
2018-08-30T22:47:22.833Z,15.48
2018-08-30T22:49:51.900Z,15.53
2018-08-30T22:52:20.964Z,15.50
2018-08-30T22:54:50.056Z,15.50
2018-08-30T22:57:19.122Z,15.61
2018-08-30T22:59:49.141Z,15.63
2018-08-30T23:02:18.210Z,15.55
2018-08-30T23:04:47.271Z,15.41
2018-08-30T23:09:52.105Z,15.32
2018-08-30T23:12:21.186Z,15.37
2018-08-30T23:14:50.439Z,15.33
2018-08-30T23:17:19.501Z,15.22
2018-08-30T23:22:24.363Z,15.31
2018-08-30T23:27:29.222Z,15.45
2018-08-30T23:29:58.426Z,15.53
2018-08-30T23:35:03.351Z,15.39
2018-08-30T23:37:32.465Z,15.19
2018-08-30T23:40:01.529Z,15.11
2018-08-30T23:42:30.597Z,15.13
2018-08-30T23:44:59.661Z,15.26
2018-08-30T23:47:28.726Z,15.48
2018-08-30T23:49:57.793Z,15.44
2018-08-30T23:52:26.856Z,15.45
2018-08-30T23:54:55.953Z,15.26
2018-08-30T23:57:25.030Z,15.24
